sensor_id;sensor_type;location;lat;lon;timestamp;P1;durP1;ratioP1;P2;durP2;ratioP2
66386;SDS011;53190;52.022;4.356;2023-12-20T00:02:02;156.48;;;149.55;;
66386;SDS011;53190;52.022;4.356;2023-12-20T00:04:27;155.57;;;149.05;;
66386;SDS011;53190;52.022;4.356;2023-12-20T00:06:52;156.60;;;149.73;;
66386;SDS011;53190;52.022;4.356;2023-12-20T00:09:18;146.57;;;140.07;;
66386;SDS011;53190;52.022;4.356;2023-12-20T00:11:43;151.00;;;144.70;;
66386;SDS011;53190;52.022;4.356;2023-12-20T00:14:08;147.37;;;141.40;;
66386;SDS011;53190;52.022;4.356;2023-12-20T00:16:33;149.57;;;143.30;;
66386;SDS011;53190;52.022;4.356;2023-12-20T00:18:58;152.53;;;145.73;;
66386;SDS011;53190;52.022;4.356;2023-12-20T00:21:23;150.87;;;144.57;;
66386;SDS011;53190;52.022;4.356;2023-12-20T00:23:49;156.80;;;150.33;;
66386;SDS011;53190;52.022;4.356;2023-12-20T00:26:14;146.37;;;140.13;;
66386;SDS011;53190;52.022;4.356;2023-12-20T00:28:39;146.77;;;140.60;;
66386;SDS011;53190;52.022;4.356;2023-12-20T00:31:04;156.10;;;149.37;;
66386;SDS011;53190;52.022;4.356;2023-12-20T00:33:29;156.77;;;149.03;;
66386;SDS011;53190;52.022;4.356;2023-12-20T00:35:55;151.17;;;144.30;;
66386;SDS011;53190;52.022;4.356;2023-12-20T00:38:20;158.93;;;152.03;;
66386;SDS011;53190;52.022;4.356;2023-12-20T00:40:45;154.33;;;148.13;;
66386;SDS011;53190;52.022;4.356;2023-12-20T00:43:10;156.10;;;149.00;;
66386;SDS011;53190;52.022;4.356;2023-12-20T00:45:35;160.63;;;153.80;;
66386;SDS011;53190;52.022;4.356;2023-12-20T00:48:00;149.33;;;143.27;;
66386;SDS011;53190;52.022;4.356;2023-12-20T00:50:26;151.43;;;144.87;;
66386;SDS011;53190;52.022;4.356;2023-12-20T00:52:51;152.88;;;146.60;;
66386;SDS011;53190;52.022;4.356;2023-12-20T00:55:16;150.67;;;144.00;;
66386;SDS011;53190;52.022;4.356;2023-12-20T00:57:42;158.73;;;151.32;;
66386;SDS011;53190;52.022;4.356;2023-12-20T01:00:07;152.63;;;146.27;;
66386;SDS011;53190;52.022;4.356;2023-12-20T01:02:34;159.65;;;152.38;;
66386;SDS011;53190;52.022;4.356;2023-12-20T01:05:00;159.65;;;152.75;;
66386;SDS011;53190;52.022;4.356;2023-12-20T01:07:25;154.20;;;147.53;;
66386;SDS011;53190;52.022;4.356;2023-12-20T01:09:50;157.83;;;150.90;;
66386;SDS011;53190;52.022;4.356;2023-12-20T01:12:15;156.67;;;150.13;;
66386;SDS011;53190;52.022;4.356;2023-12-20T01:14:40;156.27;;;149.77;;
66386;SDS011;53190;52.022;4.356;2023-12-20T01:17:05;150.47;;;144.07;;
66386;SDS011;53190;52.022;4.356;2023-12-20T01:19:31;156.37;;;149.47;;
66386;SDS011;53190;52.022;4.356;2023-12-20T01:21:56;157.23;;;150.70;;
66386;SDS011;53190;52.022;4.356;2023-12-20T01:24:21;165.17;;;157.90;;
66386;SDS011;53190;52.022;4.356;2023-12-20T01:26:46;156.55;;;150.10;;
66386;SDS011;53190;52.022;4.356;2023-12-20T01:29:11;157.80;;;150.93;;
66386;SDS011;53190;52.022;4.356;2023-12-20T01:31:38;155.52;;;149.00;;
66386;SDS011;53190;52.022;4.356;2023-12-20T01:34:03;153.50;;;146.57;;
66386;SDS011;53190;52.022;4.356;2023-12-20T01:36:28;158.27;;;150.87;;
66386;SDS011;53190;52.022;4.356;2023-12-20T01:38:54;160.63;;;153.77;;
66386;SDS011;53190;52.022;4.356;2023-12-20T01:41:19;155.20;;;147.97;;
66386;SDS011;53190;52.022;4.356;2023-12-20T01:43:44;156.67;;;150.23;;
66386;SDS011;53190;52.022;4.356;2023-12-20T01:46:09;161.97;;;155.07;;
66386;SDS011;53190;52.022;4.356;2023-12-20T01:48:35;153.23;;;146.77;;
66386;SDS011;53190;52.022;4.356;2023-12-20T01:51:00;159.37;;;152.27;;
66386;SDS011;53190;52.022;4.356;2023-12-20T01:53:26;158.82;;;152.00;;
66386;SDS011;53190;52.022;4.356;2023-12-20T01:55:52;165.07;;;158.00;;
66386;SDS011;53190;52.022;4.356;2023-12-20T01:58:19;162.88;;;155.45;;
66386;SDS011;53190;52.022;4.356;2023-12-20T02:00:44;157.52;;;151.02;;
66386;SDS011;53190;52.022;4.356;2023-12-20T02:03:09;158.35;;;151.32;;
66386;SDS011;53190;52.022;4.356;2023-12-20T02:05:35;161.98;;;154.93;;
66386;SDS011;53190;52.022;4.356;2023-12-20T02:08:01;158.73;;;151.48;;
66386;SDS011;53190;52.022;4.356;2023-12-20T02:10:26;165.13;;;158.07;;
66386;SDS011;53190;52.022;4.356;2023-12-20T02:12:52;164.85;;;157.70;;
66386;SDS011;53190;52.022;4.356;2023-12-20T02:15:17;152.85;;;146.63;;
66386;SDS011;53190;52.022;4.356;2023-12-20T02:17:42;155.60;;;149.20;;
66386;SDS011;53190;52.022;4.356;2023-12-20T02:20:08;151.07;;;144.45;;
66386;SDS011;53190;52.022;4.356;2023-12-20T02:22:33;153.60;;;147.23;;
66386;SDS011;53190;52.022;4.356;2023-12-20T02:24:58;151.67;;;145.23;;
66386;SDS011;53190;52.022;4.356;2023-12-20T02:27:23;158.20;;;151.20;;
66386;SDS011;53190;52.022;4.356;2023-12-20T02:29:49;149.88;;;143.32;;
66386;SDS011;53190;52.022;4.356;2023-12-20T02:32:14;151.20;;;144.88;;
66386;SDS011;53190;52.022;4.356;2023-12-20T02:34:40;158.45;;;150.60;;
66386;SDS011;53190;52.022;4.356;2023-12-20T02:37:05;156.43;;;149.87;;
66386;SDS011;53190;52.022;4.356;2023-12-20T02:39:30;155.30;;;148.70;;
66386;SDS011;53190;52.022;4.356;2023-12-20T02:41:56;161.43;;;154.07;;
66386;SDS011;53190;52.022;4.356;2023-12-20T02:44:21;162.13;;;154.97;;
66386;SDS011;53190;52.022;4.356;2023-12-20T02:46:46;158.53;;;151.77;;
66386;SDS011;53190;52.022;4.356;2023-12-20T02:49:11;156.10;;;149.40;;
66386;SDS011;53190;52.022;4.356;2023-12-20T02:51:37;166.77;;;159.27;;
66386;SDS011;53190;52.022;4.356;2023-12-20T02:54:03;161.63;;;154.60;;
66386;SDS011;53190;52.022;4.356;2023-12-20T02:56:29;159.00;;;152.18;;
66386;SDS011;53190;52.022;4.356;2023-12-20T02:58:54;155.27;;;148.73;;
66386;SDS011;53190;52.022;4.356;2023-12-20T03:01:19;159.80;;;153.00;;
66386;SDS011;53190;52.022;4.356;2023-12-20T03:03:44;155.00;;;147.53;;
66386;SDS011;53190;52.022;4.356;2023-12-20T03:06:09;162.93;;;155.87;;
66386;SDS011;53190;52.022;4.356;2023-12-20T03:08:35;166.70;;;159.10;;
66386;SDS011;53190;52.022;4.356;2023-12-20T03:11:00;159.60;;;153.23;;
66386;SDS011;53190;52.022;4.356;2023-12-20T03:13:25;161.40;;;154.10;;
66386;SDS011;53190;52.022;4.356;2023-12-20T03:15:50;159.37;;;152.43;;
66386;SDS011;53190;52.022;4.356;2023-12-20T03:18:15;155.57;;;148.50;;
66386;SDS011;53190;52.022;4.356;2023-12-20T03:20:41;151.40;;;145.05;;
66386;SDS011;53190;52.022;4.356;2023-12-20T03:23:06;159.50;;;152.40;;
66386;SDS011;53190;52.022;4.356;2023-12-20T03:25:31;161.87;;;154.53;;
66386;SDS011;53190;52.022;4.356;2023-12-20T03:27:57;151.43;;;144.60;;
66386;SDS011;53190;52.022;4.356;2023-12-20T03:30:22;156.95;;;150.35;;
66386;SDS011;53190;52.022;4.356;2023-12-20T03:32:47;150.33;;;143.30;;
66386;SDS011;53190;52.022;4.356;2023-12-20T03:35:12;156.40;;;149.37;;
66386;SDS011;53190;52.022;4.356;2023-12-20T03:37:38;161.05;;;154.18;;
66386;SDS011;53190;52.022;4.356;2023-12-20T03:40:03;158.38;;;151.30;;
66386;SDS011;53190;52.022;4.356;2023-12-20T03:42:28;162.70;;;155.82;;
66386;SDS011;53190;52.022;4.356;2023-12-20T03:44:53;157.87;;;150.07;;
66386;SDS011;53190;52.022;4.356;2023-12-20T03:47:19;153.77;;;147.37;;
66386;SDS011;53190;52.022;4.356;2023-12-20T03:49:44;156.87;;;150.10;;
66386;SDS011;53190;52.022;4.356;2023-12-20T03:52:09;159.00;;;151.80;;
66386;SDS011;53190;52.022;4.356;2023-12-20T03:54:35;150.47;;;143.97;;
66386;SDS011;53190;52.022;4.356;2023-12-20T03:57:00;152.55;;;145.95;;
66386;SDS011;53190;52.022;4.356;2023-12-20T03:59:25;156.40;;;149.43;;
66386;SDS011;53190;52.022;4.356;2023-12-20T04:01:50;163.70;;;156.83;;
66386;SDS011;53190;52.022;4.356;2023-12-20T04:04:15;164.20;;;156.87;;
66386;SDS011;53190;52.022;4.356;2023-12-20T04:06:40;154.33;;;147.93;;
66386;SDS011;53190;52.022;4.356;2023-12-20T04:09:06;157.17;;;150.23;;
66386;SDS011;53190;52.022;4.356;2023-12-20T04:11:31;157.13;;;150.05;;
66386;SDS011;53190;52.022;4.356;2023-12-20T04:13:56;154.73;;;148.10;;
66386;SDS011;53190;52.022;4.356;2023-12-20T04:16:21;170.23;;;162.07;;
66386;SDS011;53190;52.022;4.356;2023-12-20T04:18:46;161.67;;;154.73;;
66386;SDS011;53190;52.022;4.356;2023-12-20T04:21:12;153.33;;;146.57;;
66386;SDS011;53190;52.022;4.356;2023-12-20T04:23:37;160.77;;;153.50;;
66386;SDS011;53190;52.022;4.356;2023-12-20T04:26:02;154.20;;;147.10;;
66386;SDS011;53190;52.022;4.356;2023-12-20T04:28:27;166.93;;;159.32;;
66386;SDS011;53190;52.022;4.356;2023-12-20T04:30:55;166.50;;;159.07;;
66386;SDS011;53190;52.022;4.356;2023-12-20T04:33:20;164.15;;;157.30;;
66386;SDS011;53190;52.022;4.356;2023-12-20T04:35:45;168.77;;;161.33;;
66386;SDS011;53190;52.022;4.356;2023-12-20T04:38:11;165.95;;;158.85;;
66386;SDS011;53190;52.022;4.356;2023-12-20T04:40:36;157.80;;;151.25;;
66386;SDS011;53190;52.022;4.356;2023-12-20T04:43:01;156.77;;;149.73;;
66386;SDS011;53190;52.022;4.356;2023-12-20T04:45:26;165.77;;;158.33;;
66386;SDS011;53190;52.022;4.356;2023-12-20T04:47:51;173.20;;;165.80;;
66386;SDS011;53190;52.022;4.356;2023-12-20T04:50:17;169.30;;;162.07;;
66386;SDS011;53190;52.022;4.356;2023-12-20T04:52:42;165.50;;;158.48;;
66386;SDS011;53190;52.022;4.356;2023-12-20T04:55:07;162.90;;;155.88;;
66386;SDS011;53190;52.022;4.356;2023-12-20T04:57:33;154.05;;;147.45;;
66386;SDS011;53190;52.022;4.356;2023-12-20T04:59:58;158.00;;;151.20;;
66386;SDS011;53190;52.022;4.356;2023-12-20T05:02:24;158.63;;;151.50;;
66386;SDS011;53190;52.022;4.356;2023-12-20T05:04:49;157.57;;;150.63;;
66386;SDS011;53190;52.022;4.356;2023-12-20T05:07:14;164.35;;;157.68;;
66386;SDS011;53190;52.022;4.356;2023-12-20T05:09:39;168.40;;;160.80;;
66386;SDS011;53190;52.022;4.356;2023-12-20T05:12:04;159.07;;;152.53;;
66386;SDS011;53190;52.022;4.356;2023-12-20T05:14:30;163.02;;;155.90;;
66386;SDS011;53190;52.022;4.356;2023-12-20T05:16:55;158.82;;;152.48;;
66386;SDS011;53190;52.022;4.356;2023-12-20T05:19:21;161.77;;;154.73;;
66386;SDS011;53190;52.022;4.356;2023-12-20T05:21:46;166.30;;;159.53;;
66386;SDS011;53190;52.022;4.356;2023-12-20T05:24:11;175.90;;;168.70;;
66386;SDS011;53190;52.022;4.356;2023-12-20T05:26:37;168.10;;;161.27;;
66386;SDS011;53190;52.022;4.356;2023-12-20T05:29:02;165.63;;;158.70;;
66386;SDS011;53190;52.022;4.356;2023-12-20T05:31:27;156.93;;;150.13;;
66386;SDS011;53190;52.022;4.356;2023-12-20T05:33:52;160.30;;;153.32;;
66386;SDS011;53190;52.022;4.356;2023-12-20T05:36:18;166.40;;;159.10;;
66386;SDS011;53190;52.022;4.356;2023-12-20T05:38:43;160.15;;;153.15;;
66386;SDS011;53190;52.022;4.356;2023-12-20T05:41:08;165.38;;;157.77;;
66386;SDS011;53190;52.022;4.356;2023-12-20T05:43:33;172.23;;;164.33;;
66386;SDS011;53190;52.022;4.356;2023-12-20T05:46:03;168.65;;;161.02;;
66386;SDS011;53190;52.022;4.356;2023-12-20T05:48:28;163.32;;;156.30;;
66386;SDS011;53190;52.022;4.356;2023-12-20T05:50:53;157.57;;;150.37;;
66386;SDS011;53190;52.022;4.356;2023-12-20T05:53:18;168.87;;;161.67;;
66386;SDS011;53190;52.022;4.356;2023-12-20T05:55:43;172.03;;;164.17;;
66386;SDS011;53190;52.022;4.356;2023-12-20T05:58:09;170.33;;;162.53;;
66386;SDS011;53190;52.022;4.356;2023-12-20T06:00:34;173.47;;;165.27;;
66386;SDS011;53190;52.022;4.356;2023-12-20T06:02:59;165.07;;;157.63;;
66386;SDS011;53190;52.022;4.356;2023-12-20T06:05:24;175.48;;;168.15;;
66386;SDS011;53190;52.022;4.356;2023-12-20T06:07:49;172.77;;;165.07;;
66386;SDS011;53190;52.022;4.356;2023-12-20T06:10:15;174.88;;;167.38;;
66386;SDS011;53190;52.022;4.356;2023-12-20T06:12:41;169.77;;;161.70;;
66386;SDS011;53190;52.022;4.356;2023-12-20T06:15:06;220.68;;;210.98;;
66386;SDS011;53190;52.022;4.356;2023-12-20T06:17:32;169.73;;;162.52;;
66386;SDS011;53190;52.022;4.356;2023-12-20T06:19:57;253.07;;;242.83;;
66386;SDS011;53190;52.022;4.356;2023-12-20T06:22:22;188.10;;;180.30;;
66386;SDS011;53190;52.022;4.356;2023-12-20T06:24:47;168.17;;;160.77;;
66386;SDS011;53190;52.022;4.356;2023-12-20T06:27:12;185.53;;;177.47;;
66386;SDS011;53190;52.022;4.356;2023-12-20T06:29:38;171.77;;;163.97;;
66386;SDS011;53190;52.022;4.356;2023-12-20T06:32:03;175.93;;;168.30;;
66386;SDS011;53190;52.022;4.356;2023-12-20T06:34:28;174.20;;;166.65;;
66386;SDS011;53190;52.022;4.356;2023-12-20T06:36:54;196.02;;;187.63;;
66386;SDS011;53190;52.022;4.356;2023-12-20T06:39:19;174.30;;;166.90;;
66386;SDS011;53190;52.022;4.356;2023-12-20T06:41:44;186.00;;;177.87;;
66386;SDS011;53190;52.022;4.356;2023-12-20T06:44:09;184.20;;;176.53;;
66386;SDS011;53190;52.022;4.356;2023-12-20T06:46:34;187.47;;;179.53;;
66386;SDS011;53190;52.022;4.356;2023-12-20T06:49:00;186.18;;;177.70;;
66386;SDS011;53190;52.022;4.356;2023-12-20T06:51:25;180.00;;;172.07;;
66386;SDS011;53190;52.022;4.356;2023-12-20T06:53:51;190.60;;;181.93;;
66386;SDS011;53190;52.022;4.356;2023-12-20T06:56:16;193.35;;;185.32;;
66386;SDS011;53190;52.022;4.356;2023-12-20T06:58:41;182.85;;;175.38;;
66386;SDS011;53190;52.022;4.356;2023-12-20T07:01:10;171.15;;;163.77;;
66386;SDS011;53190;52.022;4.356;2023-12-20T07:03:36;204.65;;;196.25;;
66386;SDS011;53190;52.022;4.356;2023-12-20T07:06:01;189.57;;;181.27;;
66386;SDS011;53190;52.022;4.356;2023-12-20T07:08:27;188.98;;;180.95;;
66386;SDS011;53190;52.022;4.356;2023-12-20T07:10:52;226.83;;;216.93;;
66386;SDS011;53190;52.022;4.356;2023-12-20T07:13:18;175.53;;;167.97;;
66386;SDS011;53190;52.022;4.356;2023-12-20T07:15:43;204.52;;;195.95;;
66386;SDS011;53190;52.022;4.356;2023-12-20T07:18:08;192.65;;;184.30;;
66386;SDS011;53190;52.022;4.356;2023-12-20T07:20:33;190.77;;;182.80;;
66386;SDS011;53190;52.022;4.356;2023-12-20T07:22:59;192.30;;;183.90;;
66386;SDS011;53190;52.022;4.356;2023-12-20T07:25:24;202.15;;;193.60;;
66386;SDS011;53190;52.022;4.356;2023-12-20T07:27:50;192.20;;;184.43;;
66386;SDS011;53190;52.022;4.356;2023-12-20T07:30:15;197.60;;;189.30;;
66386;SDS011;53190;52.022;4.356;2023-12-20T07:32:43;236.53;;;226.60;;
66386;SDS011;53190;52.022;4.356;2023-12-20T07:35:08;181.60;;;173.77;;
66386;SDS011;53190;52.022;4.356;2023-12-20T07:37:33;300.97;;;287.97;;
66386;SDS011;53190;52.022;4.356;2023-12-20T07:39:58;181.73;;;173.73;;
66386;SDS011;53190;52.022;4.356;2023-12-20T07:42:24;185.23;;;177.47;;
66386;SDS011;53190;52.022;4.356;2023-12-20T07:44:49;196.30;;;188.00;;
66386;SDS011;53190;52.022;4.356;2023-12-20T07:47:14;196.63;;;188.20;;
66386;SDS011;53190;52.022;4.356;2023-12-20T07:49:42;207.80;;;198.48;;
66386;SDS011;53190;52.022;4.356;2023-12-20T07:52:07;177.97;;;169.30;;
66386;SDS011;53190;52.022;4.356;2023-12-20T07:54:33;187.40;;;179.45;;
66386;SDS011;53190;52.022;4.356;2023-12-20T07:56:58;191.50;;;182.77;;
66386;SDS011;53190;52.022;4.356;2023-12-20T07:59:23;190.20;;;182.15;;
66386;SDS011;53190;52.022;4.356;2023-12-20T08:01:48;184.23;;;175.97;;
66386;SDS011;53190;52.022;4.356;2023-12-20T08:04:13;185.23;;;177.23;;
66386;SDS011;53190;52.022;4.356;2023-12-20T08:06:39;173.80;;;166.27;;
66386;SDS011;53190;52.022;4.356;2023-12-20T08:09:04;181.37;;;173.27;;
66386;SDS011;53190;52.022;4.356;2023-12-20T08:11:29;179.67;;;172.30;;
66386;SDS011;53190;52.022;4.356;2023-12-20T08:13:54;193.02;;;184.73;;
66386;SDS011;53190;52.022;4.356;2023-12-20T08:16:20;213.17;;;203.93;;
66386;SDS011;53190;52.022;4.356;2023-12-20T08:18:45;189.77;;;181.87;;
66386;SDS011;53190;52.022;4.356;2023-12-20T08:21:10;217.30;;;208.18;;
66386;SDS011;53190;52.022;4.356;2023-12-20T08:23:36;225.20;;;215.40;;
66386;SDS011;53190;52.022;4.356;2023-12-20T08:26:05;211.23;;;201.95;;
66386;SDS011;53190;52.022;4.356;2023-12-20T08:28:30;189.05;;;180.80;;
66386;SDS011;53190;52.022;4.356;2023-12-20T08:30:56;201.90;;;193.40;;
66386;SDS011;53190;52.022;4.356;2023-12-20T08:33:21;181.20;;;173.43;;
66386;SDS011;53190;52.022;4.356;2023-12-20T08:35:46;189.27;;;181.27;;
66386;SDS011;53190;52.022;4.356;2023-12-20T08:38:12;188.93;;;180.90;;
66386;SDS011;53190;52.022;4.356;2023-12-20T08:40:37;217.23;;;208.13;;
66386;SDS011;53190;52.022;4.356;2023-12-20T08:43:02;221.43;;;212.10;;
66386;SDS011;53190;52.022;4.356;2023-12-20T08:45:27;199.02;;;191.00;;
66386;SDS011;53190;52.022;4.356;2023-12-20T08:47:53;196.17;;;187.93;;
66386;SDS011;53190;52.022;4.356;2023-12-20T08:50:18;205.33;;;196.70;;
66386;SDS011;53190;52.022;4.356;2023-12-20T08:52:43;201.98;;;193.55;;
66386;SDS011;53190;52.022;4.356;2023-12-20T08:55:09;214.27;;;205.43;;
66386;SDS011;53190;52.022;4.356;2023-12-20T08:57:35;213.73;;;204.63;;
66386;SDS011;53190;52.022;4.356;2023-12-20T09:00:00;196.93;;;188.43;;
66386;SDS011;53190;52.022;4.356;2023-12-20T09:02:25;202.27;;;193.90;;
66386;SDS011;53190;52.022;4.356;2023-12-20T09:04:51;205.77;;;197.27;;
66386;SDS011;53190;52.022;4.356;2023-12-20T09:09:47;222.77;;;213.20;;
66386;SDS011;53190;52.022;4.356;2023-12-20T09:12:12;212.70;;;203.60;;
66386;SDS011;53190;52.022;4.356;2023-12-20T09:14:38;216.40;;;207.40;;
66386;SDS011;53190;52.022;4.356;2023-12-20T09:17:03;214.53;;;205.87;;
66386;SDS011;53190;52.022;4.356;2023-12-20T09:19:28;218.68;;;209.63;;
66386;SDS011;53190;52.022;4.356;2023-12-20T09:21:54;210.95;;;202.18;;
66386;SDS011;53190;52.022;4.356;2023-12-20T09:24:19;235.53;;;225.63;;
66386;SDS011;53190;52.022;4.356;2023-12-20T09:26:44;215.67;;;206.83;;
66386;SDS011;53190;52.022;4.356;2023-12-20T09:29:10;222.73;;;212.97;;
66386;SDS011;53190;52.022;4.356;2023-12-20T09:31:40;221.70;;;212.40;;
66386;SDS011;53190;52.022;4.356;2023-12-20T09:34:05;213.90;;;204.77;;
66386;SDS011;53190;52.022;4.356;2023-12-20T09:36:30;229.30;;;219.40;;
66386;SDS011;53190;52.022;4.356;2023-12-20T09:38:59;212.65;;;203.70;;
66386;SDS011;53190;52.022;4.356;2023-12-20T09:41:25;208.02;;;199.43;;
66386;SDS011;53190;52.022;4.356;2023-12-20T09:43:50;229.18;;;219.30;;
66386;SDS011;53190;52.022;4.356;2023-12-20T09:46:17;233.68;;;224.00;;
66386;SDS011;53190;52.022;4.356;2023-12-20T09:48:44;231.07;;;221.35;;
66386;SDS011;53190;52.022;4.356;2023-12-20T09:51:09;241.70;;;231.77;;
66386;SDS011;53190;52.022;4.356;2023-12-20T09:53:35;229.13;;;219.23;;
66386;SDS011;53190;52.022;4.356;2023-12-20T09:56:01;216.00;;;206.95;;
66386;SDS011;53190;52.022;4.356;2023-12-20T09:58:27;227.90;;;218.15;;
66386;SDS011;53190;52.022;4.356;2023-12-20T10:00:53;243.50;;;233.35;;
66386;SDS011;53190;52.022;4.356;2023-12-20T10:03:19;220.85;;;211.73;;
66386;SDS011;53190;52.022;4.356;2023-12-20T10:05:47;213.48;;;204.07;;
66386;SDS011;53190;52.022;4.356;2023-12-20T10:08:14;212.50;;;203.70;;
66386;SDS011;53190;52.022;4.356;2023-12-20T10:10:39;214.80;;;205.73;;
66386;SDS011;53190;52.022;4.356;2023-12-20T10:13:05;214.27;;;205.57;;
66386;SDS011;53190;52.022;4.356;2023-12-20T10:15:32;228.02;;;218.48;;
66386;SDS011;53190;52.022;4.356;2023-12-20T10:17:57;240.43;;;230.57;;
66386;SDS011;53190;52.022;4.356;2023-12-20T10:20:23;223.10;;;214.05;;
66386;SDS011;53190;52.022;4.356;2023-12-20T10:22:49;227.20;;;217.63;;
66386;SDS011;53190;52.022;4.356;2023-12-20T10:25:14;257.27;;;245.65;;
66386;SDS011;53190;52.022;4.356;2023-12-20T10:27:39;257.27;;;246.83;;
66386;SDS011;53190;52.022;4.356;2023-12-20T10:30:05;221.83;;;212.63;;
66386;SDS011;53190;52.022;4.356;2023-12-20T10:32:30;237.38;;;227.15;;
66386;SDS011;53190;52.022;4.356;2023-12-20T10:34:56;236.68;;;227.07;;
66386;SDS011;53190;52.022;4.356;2023-12-20T10:37:21;244.75;;;234.15;;
66386;SDS011;53190;52.022;4.356;2023-12-20T10:39:50;246.95;;;235.80;;
66386;SDS011;53190;52.022;4.356;2023-12-20T10:42:30;340.02;;;323.85;;
66386;SDS011;53190;52.022;4.356;2023-12-20T10:44:55;242.93;;;232.85;;
66386;SDS011;53190;52.022;4.356;2023-12-20T10:47:21;231.98;;;222.35;;
66386;SDS011;53190;52.022;4.356;2023-12-20T10:49:47;236.10;;;225.98;;
66386;SDS011;53190;52.022;4.356;2023-12-20T10:52:13;250.65;;;240.20;;
66386;SDS011;53190;52.022;4.356;2023-12-20T10:54:39;239.38;;;229.70;;
66386;SDS011;53190;52.022;4.356;2023-12-20T10:57:05;242.05;;;232.32;;
66386;SDS011;53190;52.022;4.356;2023-12-20T10:59:30;247.45;;;237.15;;
66386;SDS011;53190;52.022;4.356;2023-12-20T11:01:57;249.48;;;238.82;;
66386;SDS011;53190;52.022;4.356;2023-12-20T11:04:25;264.10;;;253.23;;
66386;SDS011;53190;52.022;4.356;2023-12-20T11:06:56;251.35;;;240.45;;
66386;SDS011;53190;52.022;4.356;2023-12-20T11:09:35;265.40;;;254.43;;
66386;SDS011;53190;52.022;4.356;2023-12-20T11:17:09;274.67;;;262.50;;
66386;SDS011;53190;52.022;4.356;2023-12-20T11:19:42;266.02;;;254.30;;
66386;SDS011;53190;52.022;4.356;2023-12-20T11:22:21;289.55;;;277.48;;
66386;SDS011;53190;52.022;4.356;2023-12-20T11:24:47;267.77;;;256.55;;
66386;SDS011;53190;52.022;4.356;2023-12-20T11:27:13;256.17;;;245.88;;
66386;SDS011;53190;52.022;4.356;2023-12-20T11:29:38;267.98;;;256.40;;
66386;SDS011;53190;52.022;4.356;2023-12-20T11:32:49;255.57;;;244.95;;
66386;SDS011;53190;52.022;4.356;2023-12-20T11:34:54;266.48;;;254.98;;
66386;SDS011;53190;52.022;4.356;2023-12-20T11:37:19;266.08;;;255.18;;
66386;SDS011;53190;52.022;4.356;2023-12-20T11:39:45;256.95;;;245.73;;
66386;SDS011;53190;52.022;4.356;2023-12-20T11:42:10;280.33;;;268.77;;
66386;SDS011;53190;52.022;4.356;2023-12-20T11:44:36;272.98;;;261.98;;
66386;SDS011;53190;52.022;4.356;2023-12-20T11:47:01;256.25;;;245.55;;
66386;SDS011;53190;52.022;4.356;2023-12-20T11:49:26;264.93;;;254.20;;
66386;SDS011;53190;52.022;4.356;2023-12-20T11:51:54;259.85;;;249.35;;
66386;SDS011;53190;52.022;4.356;2023-12-20T11:54:19;294.03;;;282.13;;
66386;SDS011;53190;52.022;4.356;2023-12-20T11:56:44;259.30;;;248.77;;
66386;SDS011;53190;52.022;4.356;2023-12-20T11:59:10;301.58;;;289.27;;
66386;SDS011;53190;52.022;4.356;2023-12-20T12:01:36;272.05;;;260.75;;
66386;SDS011;53190;52.022;4.356;2023-12-20T12:04:04;268.50;;;257.47;;
66386;SDS011;53190;52.022;4.356;2023-12-20T12:06:30;276.67;;;265.63;;
66386;SDS011;53190;52.022;4.356;2023-12-20T12:08:55;263.87;;;253.27;;
66386;SDS011;53190;52.022;4.356;2023-12-20T12:11:20;258.02;;;247.45;;
66386;SDS011;53190;52.022;4.356;2023-12-20T12:13:46;274.73;;;263.40;;
66386;SDS011;53190;52.022;4.356;2023-12-20T12:16:11;281.55;;;269.90;;
66386;SDS011;53190;52.022;4.356;2023-12-20T12:18:36;263.00;;;252.17;;
66386;SDS011;53190;52.022;4.356;2023-12-20T12:21:01;275.13;;;263.83;;
66386;SDS011;53190;52.022;4.356;2023-12-20T12:23:27;265.40;;;254.65;;
66386;SDS011;53190;52.022;4.356;2023-12-20T12:25:53;307.77;;;295.33;;
66386;SDS011;53190;52.022;4.356;2023-12-20T12:28:20;290.98;;;279.13;;
66386;SDS011;53190;52.022;4.356;2023-12-20T12:30:58;284.45;;;273.10;;
66386;SDS011;53190;52.022;4.356;2023-12-20T12:33:24;272.35;;;261.48;;
66386;SDS011;53190;52.022;4.356;2023-12-20T12:35:49;276.30;;;265.02;;
66386;SDS011;53190;52.022;4.356;2023-12-20T12:38:14;279.50;;;268.17;;
66386;SDS011;53190;52.022;4.356;2023-12-20T12:40:40;277.25;;;265.77;;
66386;SDS011;53190;52.022;4.356;2023-12-20T12:43:08;281.83;;;270.48;;
66386;SDS011;53190;52.022;4.356;2023-12-20T12:45:33;272.00;;;261.10;;
66386;SDS011;53190;52.022;4.356;2023-12-20T12:47:58;278.10;;;266.63;;
66386;SDS011;53190;52.022;4.356;2023-12-20T12:50:24;307.37;;;293.93;;
66386;SDS011;53190;52.022;4.356;2023-12-20T12:52:49;286.58;;;274.73;;
66386;SDS011;53190;52.022;4.356;2023-12-20T12:55:14;293.33;;;281.13;;
66386;SDS011;53190;52.022;4.356;2023-12-20T12:57:39;280.00;;;268.50;;
66386;SDS011;53190;52.022;4.356;2023-12-20T13:00:05;268.40;;;257.50;;
66386;SDS011;53190;52.022;4.356;2023-12-20T13:02:33;272.52;;;261.77;;
66386;SDS011;53190;52.022;4.356;2023-12-20T13:04:58;290.47;;;277.90;;
66386;SDS011;53190;52.022;4.356;2023-12-20T13:07:24;266.65;;;255.57;;
66386;SDS011;53190;52.022;4.356;2023-12-20T13:09:49;258.83;;;248.38;;
66386;SDS011;53190;52.022;4.356;2023-12-20T13:12:14;271.75;;;260.73;;
66386;SDS011;53190;52.022;4.356;2023-12-20T13:14:39;265.25;;;254.25;;
66386;SDS011;53190;52.022;4.356;2023-12-20T13:17:05;290.05;;;278.20;;
66386;SDS011;53190;52.022;4.356;2023-12-20T13:19:31;275.83;;;264.73;;
66386;SDS011;53190;52.022;4.356;2023-12-20T13:21:56;265.93;;;254.63;;
66386;SDS011;53190;52.022;4.356;2023-12-20T13:24:21;258.67;;;248.07;;
66386;SDS011;53190;52.022;4.356;2023-12-20T13:26:46;265.30;;;254.30;;
66386;SDS011;53190;52.022;4.356;2023-12-20T13:29:12;271.30;;;259.95;;
66386;SDS011;53190;52.022;4.356;2023-12-20T13:31:37;279.93;;;268.50;;
66386;SDS011;53190;52.022;4.356;2023-12-20T13:34:02;258.77;;;248.50;;
66386;SDS011;53190;52.022;4.356;2023-12-20T13:36:27;268.83;;;257.70;;
66386;SDS011;53190;52.022;4.356;2023-12-20T13:38:52;270.17;;;258.97;;
66386;SDS011;53190;52.022;4.356;2023-12-20T13:41:18;290.63;;;278.38;;
66386;SDS011;53190;52.022;4.356;2023-12-20T13:43:43;271.23;;;260.30;;
66386;SDS011;53190;52.022;4.356;2023-12-20T13:46:08;265.05;;;254.30;;
66386;SDS011;53190;52.022;4.356;2023-12-20T13:48:34;267.00;;;255.95;;
66386;SDS011;53190;52.022;4.356;2023-12-20T13:50:59;260.87;;;250.57;;
66386;SDS011;53190;52.022;4.356;2023-12-20T13:53:25;280.23;;;268.63;;
66386;SDS011;53190;52.022;4.356;2023-12-20T13:55:50;258.30;;;247.70;;